Flight Track Log - Related Links

Times and Time Zones

All times are in EDT time to prevent confusion due to time zone crossing. See the C-GSLM flight status page for this flight to view local times or setup timezone preferences in your user account.

Time Position Orientation Groundspeed Altitude Reporting Facility
EDT Latitude Longitude Course Direction KTS MPH feet Rate Location/Type
Sun 03:33:00 PM 43.1000 -80.3167 180° South 70 81 1,700  Level Toronto Center
Sun 03:34:00 PM 43.0833 -80.3167 180° South 70 81 2,500 650 Climbing Toronto Center
Sun 03:35:00 PM 43.0833 -80.3000 90° East 70 81 3,000 600 Climbing Toronto Center
Sun 03:36:00 PM 43.1000 -80.3000 360° North 90 104 3,700 550 Climbing Toronto Center
Sun 03:37:00 PM 43.1333 -80.3000 360° North 100 115 4,100 200 Climbing Toronto Center
Sun 03:38:00 PM 43.1667 -80.3000 360° North 110 127 4,100  Level Toronto Center
Sun 03:39:00 PM 43.2000 -80.2667 36° Northeast 120 138 4,100  Level Toronto Center
Sun 03:40:00 PM 43.2167 -80.2500 36° Northeast 110 127 4,100 -100 Level Toronto Center
Sun 03:41:00 PM 43.2167 -80.2000 90° East 110 127 3,900 -350 Descending Toronto Center
Sun 03:42:00 PM 43.2333 -80.1833 36° Northeast 110 127 3,400 -450 Descending Toronto Center
Sun 03:43:00 PM 43.2167 -80.1333 115° Southeast 100 115 3,000 -250 Descending Toronto Center
Sun 03:44:00 PM 43.2167 -80.1167 90° East 100 115 2,900 -100 Descending Toronto Center
Sun 03:45:00 PM 43.2000 -80.0667 115° Southeast 100 115 2,800 -350 Descending Toronto Center
Sun 03:46:00 PM 43.1833 -80.0167 115° Southeast 100 115 2,200 -500 Descending Toronto Center
Sun 03:47:00 PM 43.1833 -80.0000 90° East 100 115 1,800 -450 Descending Toronto Center
Sun 03:48:00 PM 43.1833 -79.9500 90° East 100 115 1,300 -94 Descending Toronto Center
Sun 03:49:07 PM 43.1667 -79.9000 115° Southeast 90 104 1,600 520 Climbing Toronto Center
Sun 03:50:07 PM 43.1667 -79.8833 90° East 80 92 2,400 700 Climbing Toronto Center
Sun 03:51:07 PM 43.1500 -79.8667 144° Southeast 90 104 3,000 300 Climbing Toronto Center
Sun 03:52:07 PM 43.1333 -79.8333 124° Southeast 100 115 3,000  Level Toronto Center
Sun 03:53:07 PM 43.1500 -79.8833 295° West 110 127 3,000  Level Toronto Center
Sun 03:54:07 PM 43.1500 -79.9333 270° West 110 127 3,000  Level Toronto Center
Sun 03:55:07 PM 43.1667 -79.9833 295° West 110 127 3,000  Level Toronto Center
Sun 03:56:07 PM 43.1833 -80.0000 324° Northwest 110 127 3,000 50 Level Toronto Center
Sun 03:57:07 PM 43.1833 -80.0500 270° West 110 127 3,100 50 Climbing Toronto Center
Sun 03:58:07 PM 43.2000 -80.0833 304° West 110 127 3,100 -50 Level Toronto Center
Sun 03:59:07 PM 43.2167 -80.1167 304° West 110 127 3,000  Descending Toronto Center
Sun 04:00:07 PM 43.2500 -80.1667 312° West 120 138 3,100 50 Climbing Toronto Center
Sun 04:01:07 PM 43.2333 -80.1833 216° Southwest 100 115 3,100  Level Toronto Center

Login

Don't have an account? Register now (free) for customized features, flight alerts, and more!